createdAt,value
2019-02-27T00:00:51.047Z,3.27
2019-02-27T00:03:20.401Z,3.07
2019-02-27T00:05:49.619Z,2.80
2019-02-27T00:08:18.798Z,3.63
2019-02-27T00:10:48.005Z,2.60
2019-02-27T00:13:17.205Z,2.53
2019-02-27T00:15:46.393Z,2.40
2019-02-27T00:18:15.593Z,2.70
2019-02-27T00:20:44.799Z,2.60
2019-02-27T00:23:13.985Z,2.70
2019-02-27T00:25:43.191Z,2.80
2019-02-27T00:28:12.364Z,2.73
2019-02-27T00:30:41.633Z,3.10
2019-02-27T00:33:10.817Z,3.13
2019-02-27T00:35:40.027Z,3.10
2019-02-27T00:38:09.213Z,3.00
2019-02-27T00:40:39.382Z,2.77
2019-02-27T00:43:08.671Z,3.57
2019-02-27T00:45:40.137Z,2.90
2019-02-27T00:48:08.831Z,2.90
2019-02-27T00:50:39.201Z,3.40
2019-02-27T00:53:08.832Z,3.27
2019-02-27T00:55:39.367Z,3.33
2019-02-27T00:58:08.814Z,2.93
2019-02-27T01:00:39.363Z,3.93
2019-02-27T01:03:08.932Z,4.43
2019-02-27T01:05:40.976Z,4.37
2019-02-27T01:08:09.021Z,4.10
2019-02-27T01:10:38.200Z,4.60
2019-02-27T01:13:07.390Z,3.80
2019-02-27T01:15:36.568Z,3.70
2019-02-27T01:18:05.768Z,2.90
2019-02-27T01:20:34.938Z,2.97
2019-02-27T01:23:04.164Z,3.70
2019-02-27T01:25:33.334Z,3.30
2019-02-27T01:28:02.534Z,3.50
2019-02-27T01:30:31.756Z,3.57
2019-02-27T01:33:03.951Z,3.90
2019-02-27T01:35:31.849Z,3.57
2019-02-27T01:38:05.078Z,3.30
2019-02-27T01:40:31.927Z,3.40
2019-02-27T01:43:05.500Z,2.80
2019-02-27T01:45:32.053Z,3.00
2019-02-27T01:48:01.279Z,3.57
2019-02-27T01:50:32.876Z,3.60
2019-02-27T01:53:02.084Z,4.00
2019-02-27T01:55:31.266Z,4.40
2019-02-27T01:58:00.467Z,4.90
2019-02-27T02:00:29.633Z,5.07
2019-02-27T02:02:58.833Z,4.70
2019-02-27T02:05:28.018Z,4.30
2019-02-27T02:07:57.207Z,4.17
2019-02-27T02:10:28.298Z,4.60
2019-02-27T02:13:09.341Z,4.90
2019-02-27T02:16:00.881Z,4.23
2019-02-27T02:18:36.794Z,4.47
2019-02-27T02:21:21.153Z,4.37
2019-02-27T02:23:59.773Z,4.10
2019-02-27T02:26:55.235Z,3.70
2019-02-27T02:29:53.169Z,3.70
2019-02-27T02:32:28.660Z,3.93
2019-02-27T02:35:33.937Z,4.27
2019-02-27T02:38:17.554Z,4.50
2019-02-27T02:41:11.067Z,4.77
2019-02-27T02:43:55.350Z,3.60
2019-02-27T02:46:27.783Z,4.17
2019-02-27T02:49:11.831Z,4.03
2019-02-27T02:51:50.097Z,4.57
2019-02-27T02:54:41.235Z,4.67
2019-02-27T02:57:37.087Z,4.47
2019-02-27T03:00:39.097Z,4.20
2019-02-27T03:03:18.063Z,4.10
2019-02-27T03:06:13.553Z,4.30
2019-02-27T03:09:16.417Z,4.13
2019-02-27T03:12:07.265Z,4.00
2019-02-27T03:14:57.409Z,4.13
2019-02-27T03:17:46.430Z,4.73
2019-02-27T03:20:39.324Z,4.90
2019-02-27T03:23:32.854Z,4.70
2019-02-27T03:26:07.856Z,5.00
2019-02-27T03:29:06.163Z,4.50
2019-02-27T03:31:44.467Z,4.47
2019-02-27T03:34:25.476Z,4.90
2019-02-27T03:37:13.128Z,5.53
2019-02-27T03:39:55.716Z,4.47
2019-02-27T03:42:36.386Z,5.30
2019-02-27T03:45:23.939Z,4.67
2019-02-27T03:47:56.366Z,4.73
2019-02-27T03:50:34.689Z,4.60
2019-02-27T03:53:26.701Z,4.10
2019-02-27T03:56:08.760Z,4.60
2019-02-27T03:58:45.126Z,5.07
2019-02-27T04:01:34.985Z,4.80
2019-02-27T04:04:13.575Z,5.10
2019-02-27T04:07:04.878Z,4.63
2019-02-27T04:09:34.100Z,4.73
2019-02-27T04:12:03.273Z,4.87
2019-02-27T04:14:40.432Z,4.57
2019-02-27T04:17:07.104Z,4.90
2019-02-27T04:19:39.234Z,5.13
2019-02-27T04:22:06.634Z,5.73
2019-02-27T04:24:35.822Z,5.70
2019-02-27T04:27:05.104Z,5.17
2019-02-27T04:29:34.298Z,5.40
2019-02-27T04:32:03.508Z,5.23
2019-02-27T04:34:33.325Z,4.97
2019-02-27T04:37:02.961Z,5.97
2019-02-27T04:39:32.158Z,5.57
2019-02-27T04:42:01.348Z,5.43
2019-02-27T04:44:30.543Z,5.83
2019-02-27T04:46:59.741Z,5.07
2019-02-27T04:49:28.927Z,5.20
2019-02-27T04:51:58.201Z,6.10
2019-02-27T04:54:27.381Z,5.53
2019-02-27T04:56:57.614Z,5.83
2019-02-27T04:59:27.351Z,5.60
2019-02-27T05:01:56.551Z,5.77
2019-02-27T05:04:25.734Z,6.40
2019-02-27T05:06:55.006Z,5.87
2019-02-27T05:09:24.189Z,5.80
2019-02-27T05:11:53.422Z,5.57
2019-02-27T05:14:24.838Z,5.63
2019-02-27T05:16:53.491Z,6.10
2019-02-27T05:19:22.684Z,5.97
2019-02-27T05:21:52.463Z,6.10
2019-02-27T05:24:22.352Z,6.20
2019-02-27T05:26:51.546Z,6.00
2019-02-27T05:29:20.771Z,6.43
2019-02-27T05:31:50.124Z,6.17
2019-02-27T05:34:20.856Z,7.13
2019-02-27T05:36:50.080Z,6.13
2019-02-27T05:39:19.292Z,6.40
2019-02-27T05:41:48.472Z,6.70
2019-02-27T05:44:21.427Z,7.40
2019-02-27T05:46:48.567Z,7.37
2019-02-27T05:49:17.772Z,6.33
2019-02-27T05:51:46.964Z,6.60
2019-02-27T05:54:16.171Z,6.17
2019-02-27T05:56:47.155Z,5.97
2019-02-27T05:59:16.270Z,6.10
2019-02-27T06:01:45.450Z,6.20
2019-02-27T06:04:14.654Z,6.13
2019-02-27T06:06:45.662Z,5.70
2019-02-27T06:09:14.824Z,6.57
2019-02-27T06:11:44.013Z,6.67
2019-02-27T06:14:13.225Z,6.73
2019-02-27T06:16:42.401Z,6.70
2019-02-27T06:19:11.610Z,6.63
2019-02-27T06:21:40.801Z,8.40
2019-02-27T06:24:12.530Z,7.80
2019-02-27T06:26:40.878Z,7.07
2019-02-27T06:29:10.133Z,6.83
2019-02-27T06:31:39.612Z,7.27
2019-02-27T06:34:08.972Z,7.87
2019-02-27T06:36:42.041Z,6.73
2019-02-27T06:39:09.255Z,7.00
2019-02-27T06:41:39.854Z,7.60
2019-02-27T06:44:09.231Z,7.43
2019-02-27T06:46:38.429Z,7.73
2019-02-27T06:49:07.708Z,6.97
2019-02-27T06:51:37.069Z,7.33
2019-02-27T06:54:06.281Z,7.13
2019-02-27T06:56:35.467Z,8.50
2019-02-27T06:59:04.661Z,7.40
2019-02-27T07:01:33.851Z,7.10
2019-02-27T07:04:04.762Z,8.00
2019-02-27T07:06:33.949Z,8.33
2019-02-27T07:09:03.156Z,7.20
2019-02-27T07:11:32.345Z,8.17
2019-02-27T07:14:01.610Z,6.87
2019-02-27T07:16:30.892Z,7.23
2019-02-27T07:19:00.079Z,8.00
2019-02-27T07:21:32.417Z,7.27
2019-02-27T07:24:00.156Z,6.70
2019-02-27T07:26:29.332Z,7.13
2019-02-27T07:28:58.541Z,7.10
2019-02-27T07:31:27.730Z,6.73
2019-02-27T07:33:57.037Z,6.40
2019-02-27T07:36:26.216Z,6.40
2019-02-27T07:38:57.477Z,7.70
2019-02-27T07:41:26.319Z,7.27
2019-02-27T07:43:55.529Z,9.23
2019-02-27T07:46:24.712Z,8.97
2019-02-27T07:48:56.317Z,8.10
2019-02-27T07:51:24.873Z,8.10
2019-02-27T07:53:54.547Z,9.20
2019-02-27T07:56:23.757Z,7.73
2019-02-27T07:58:52.946Z,8.60
2019-02-27T08:01:23.622Z,9.57
2019-02-27T08:03:53.071Z,6.40
2019-02-27T08:06:23.607Z,9.40
2019-02-27T08:08:56.984Z,9.10
2019-02-27T08:11:23.865Z,9.20
2019-02-27T08:13:53.054Z,9.50
2019-02-27T08:16:22.698Z,9.50
2019-02-27T08:18:51.963Z,8.50
2019-02-27T08:21:21.194Z,9.53
2019-02-27T08:23:50.386Z,10.27
2019-02-27T08:26:19.607Z,10.67
2019-02-27T08:28:48.885Z,10.13
2019-02-27T08:31:18.093Z,9.20
2019-02-27T08:33:47.282Z,9.83
2019-02-27T08:36:16.516Z,10.03
2019-02-27T08:38:45.727Z,9.33
2019-02-27T08:41:14.935Z,10.67
2019-02-27T08:43:44.143Z,9.77
2019-02-27T08:46:13.385Z,11.80
2019-02-27T08:48:42.557Z,10.07
2019-02-27T08:51:11.776Z,8.73
2019-02-27T08:53:40.963Z,9.70
2019-02-27T08:56:12.296Z,10.47
2019-02-27T08:58:41.082Z,9.50
2019-02-27T09:01:10.408Z,11.93
2019-02-27T09:03:39.607Z,12.10
2019-02-27T09:06:08.906Z,11.65
2019-02-27T09:08:38.112Z,12.30
2019-02-27T09:11:07.342Z,10.53
2019-02-27T09:13:36.558Z,11.43
2019-02-27T09:16:05.767Z,10.65
2019-02-27T09:18:36.533Z,9.78
2019-02-27T09:21:05.952Z,9.80
2019-02-27T09:23:35.147Z,10.32
2019-02-27T09:26:04.372Z,10.15
2019-02-27T09:28:33.567Z,9.38
2019-02-27T09:31:04.288Z,9.70
2019-02-27T09:33:38.674Z,10.32
2019-02-27T09:36:04.634Z,10.13
2019-02-27T09:38:33.820Z,8.43
2019-02-27T09:41:03.083Z,8.48
2019-02-27T09:43:32.445Z,11.10
2019-02-27T09:46:01.674Z,9.88
2019-02-27T09:48:31.113Z,9.58
2019-02-27T09:51:01.787Z,9.68
2019-02-27T09:53:30.986Z,8.53
2019-02-27T09:56:00.190Z,8.05
2019-02-27T09:58:29.406Z,6.30
2019-02-27T10:01:13.357Z,7.00
2019-02-27T10:03:42.707Z,5.85
2019-02-27T10:06:11.904Z,6.17
2019-02-27T10:08:41.088Z,5.28
2019-02-27T10:11:10.298Z,5.35
2019-02-27T10:13:39.537Z,5.75
2019-02-27T10:16:08.742Z,5.25
2019-02-27T10:18:37.910Z,4.53
2019-02-27T10:21:09.432Z,4.58
2019-02-27T10:23:38.019Z,4.83
2019-02-27T10:26:07.209Z,5.08
2019-02-27T10:28:39.739Z,4.03
2019-02-27T10:31:07.351Z,5.45
2019-02-27T10:33:36.801Z,4.30
2019-02-27T10:36:05.992Z,4.85
2019-02-27T10:38:40.254Z,4.30
2019-02-27T10:41:06.065Z,4.40
2019-02-27T10:43:35.263Z,3.90
2019-02-27T10:46:04.461Z,4.10
2019-02-27T10:48:33.650Z,3.27
2019-02-27T10:51:02.927Z,4.10
2019-02-27T10:53:32.137Z,3.95
2019-02-27T10:56:01.321Z,3.50
2019-02-27T10:58:30.509Z,3.67
2019-02-27T11:01:01.104Z,3.72
2019-02-27T11:03:30.606Z,3.55
2019-02-27T11:05:59.807Z,3.70
2019-02-27T11:08:29.687Z,3.25
2019-02-27T11:10:58.996Z,3.72
2019-02-27T11:13:28.158Z,4.22
2019-02-27T11:15:57.373Z,3.50
2019-02-27T11:18:26.521Z,3.17
2019-02-27T11:20:59.098Z,2.90
2019-02-27T11:23:26.598Z,3.20
2019-02-27T11:25:56.955Z,2.83
2019-02-27T11:28:26.865Z,2.87
2019-02-27T11:30:56.068Z,2.87
2019-02-27T11:33:26.136Z,3.30
2019-02-27T11:35:55.373Z,2.72
2019-02-27T11:38:25.389Z,2.55
2019-02-27T11:40:54.737Z,2.70
2019-02-27T11:43:23.913Z,2.62
2019-02-27T11:45:57.517Z,2.67
2019-02-27T11:48:24.104Z,2.90
2019-02-27T11:50:53.280Z,2.20
2019-02-27T11:53:22.502Z,2.75
2019-02-27T11:55:51.670Z,2.08
2019-02-27T11:58:20.942Z,2.25
2019-02-27T12:00:50.112Z,1.90
2019-02-27T12:03:19.319Z,2.33
2019-02-27T12:05:48.574Z,2.02
2019-02-27T12:08:17.778Z,2.10
2019-02-27T12:10:46.955Z,1.95
2019-02-27T12:13:16.150Z,2.10
2019-02-27T12:15:45.343Z,2.30
2019-02-27T12:18:14.545Z,2.33
2019-02-27T12:20:43.726Z,1.70
2019-02-27T12:23:12.960Z,1.72
2019-02-27T12:25:42.147Z,1.77
2019-02-27T12:28:11.349Z,2.15
2019-02-27T12:30:40.529Z,1.80
2019-02-27T12:33:09.739Z,2.02
2019-02-27T12:35:38.934Z,1.67
2019-02-27T12:38:08.569Z,2.10
2019-02-27T12:40:37.782Z,1.87
2019-02-27T12:43:06.971Z,1.70
2019-02-27T12:45:36.149Z,1.85
2019-02-27T12:48:05.353Z,1.57
2019-02-27T12:50:34.528Z,1.77
2019-02-27T12:53:03.729Z,1.25
2019-02-27T12:55:35.507Z,1.80
2019-02-27T12:58:03.802Z,1.60
2019-02-27T13:00:34.413Z,1.70
2019-02-27T13:03:08.452Z,1.50
2019-02-27T13:05:34.511Z,1.83
2019-02-27T13:08:03.748Z,2.00
2019-02-27T13:10:34.243Z,1.63
2019-02-27T13:13:03.633Z,1.77
2019-02-27T13:15:32.846Z,2.10
2019-02-27T13:18:02.066Z,2.20
2019-02-27T13:20:32.710Z,1.90
2019-02-27T13:23:05.186Z,2.10
2019-02-27T13:25:32.800Z,1.93
2019-02-27T13:28:02.015Z,2.00
2019-02-27T13:30:31.227Z,1.57
2019-02-27T13:33:01.277Z,1.77
2019-02-27T13:35:31.245Z,1.80
2019-02-27T13:38:00.425Z,1.90
2019-02-27T13:40:35.363Z,1.83
2019-02-27T13:43:01.711Z,1.70
2019-02-27T13:45:32.117Z,1.63
2019-02-27T13:48:04.843Z,1.67
2019-02-27T13:50:32.227Z,1.73
2019-02-27T13:53:01.421Z,1.60
2019-02-27T13:55:30.631Z,1.73
2019-02-27T13:58:03.393Z,1.40
2019-02-27T14:00:31.963Z,1.40
2019-02-27T14:03:01.146Z,1.60
2019-02-27T14:05:34.902Z,1.60
2019-02-27T14:08:01.346Z,1.53
2019-02-27T14:10:34.181Z,1.70
2019-02-27T14:13:03.367Z,1.83
2019-02-27T14:15:32.577Z,1.70
2019-02-27T14:18:01.814Z,1.63
2019-02-27T14:20:31.155Z,1.50
2019-02-27T14:23:00.421Z,1.30
2019-02-27T14:25:32.911Z,1.70
2019-02-27T14:28:01.965Z,1.80
2019-02-27T14:30:48.927Z,1.47
2019-02-27T14:33:19.328Z,1.37
2019-02-27T14:35:49.033Z,1.50
2019-02-27T14:38:18.224Z,1.60
2019-02-27T14:40:47.449Z,1.33
2019-02-27T14:43:16.639Z,1.40
2019-02-27T14:45:45.849Z,1.40
2019-02-27T14:48:15.057Z,1.43
2019-02-27T14:50:44.256Z,1.53
2019-02-27T14:53:16.597Z,1.70
2019-02-27T14:55:44.402Z,1.60
2019-02-27T14:58:13.626Z,1.50
2019-02-27T15:00:43.675Z,1.80
2019-02-27T15:03:12.931Z,1.67
2019-02-27T15:05:44.725Z,1.80
2019-02-27T15:08:13.029Z,1.87
2019-02-27T15:10:42.234Z,1.27
2019-02-27T15:13:11.416Z,1.60
2019-02-27T15:15:43.190Z,1.80
2019-02-27T15:18:11.521Z,1.63
2019-02-27T15:20:41.263Z,1.57
2019-02-27T15:23:10.436Z,1.67
2019-02-27T15:25:43.202Z,1.53
2019-02-27T15:28:10.532Z,1.70
2019-02-27T15:30:39.739Z,1.73
2019-02-27T15:33:08.924Z,1.70
2019-02-27T15:35:38.316Z,1.83
2019-02-27T15:38:11.433Z,1.80
2019-02-27T15:40:38.501Z,1.80
2019-02-27T15:43:11.262Z,1.47
2019-02-27T15:45:47.513Z,1.80
2019-02-27T15:48:09.479Z,1.57
2019-02-27T15:50:38.690Z,1.60
2019-02-27T15:53:07.894Z,1.67
2019-02-27T15:55:37.937Z,1.80
2019-02-27T15:58:07.134Z,2.00
2019-02-27T16:00:36.353Z,1.93
2019-02-27T16:03:10.650Z,1.47
2019-02-27T16:05:36.487Z,1.77
2019-02-27T16:08:05.770Z,1.90
2019-02-27T16:10:34.942Z,1.93
2019-02-27T16:13:04.148Z,2.03
2019-02-27T16:15:33.329Z,1.83
2019-02-27T16:18:04.759Z,1.40
2019-02-27T16:20:33.422Z,1.60
2019-02-27T16:23:05.089Z,1.57
2019-02-27T16:25:33.530Z,1.60
2019-02-27T16:28:02.824Z,1.53
2019-02-27T16:30:33.357Z,1.87
2019-02-27T16:33:02.577Z,1.90
2019-02-27T16:35:31.762Z,1.40
2019-02-27T16:38:01.040Z,1.80
2019-02-27T16:40:30.795Z,1.37
2019-02-27T16:42:59.997Z,2.00
2019-02-27T16:45:37.344Z,1.40
2019-02-27T16:48:06.804Z,1.97
2019-02-27T16:50:35.994Z,1.67
2019-02-27T16:53:05.204Z,2.43
2019-02-27T16:55:36.960Z,2.37
2019-02-27T16:58:05.308Z,2.40
2019-02-27T17:00:37.084Z,2.20
2019-02-27T17:03:06.289Z,1.70
2019-02-27T17:05:35.485Z,2.07
2019-02-27T17:08:04.706Z,2.50
2019-02-27T17:10:35.310Z,2.20
2019-02-27T17:13:04.595Z,2.50
2019-02-27T17:15:35.987Z,2.80
2019-02-27T17:18:04.709Z,2.70
2019-02-27T17:20:36.573Z,3.30
2019-02-27T17:23:10.473Z,2.70
2019-02-27T17:25:36.681Z,2.67
2019-02-27T17:28:05.891Z,2.13
2019-02-27T17:30:37.785Z,2.43
2019-02-27T17:33:07.298Z,3.27
2019-02-27T17:35:36.497Z,4.80
2019-02-27T17:38:05.695Z,4.43
2019-02-27T17:40:37.508Z,4.77
2019-02-27T17:43:06.842Z,4.30
2019-02-27T17:45:36.085Z,4.50
2019-02-27T17:48:05.298Z,3.90
2019-02-27T17:50:34.582Z,4.10
2019-02-27T17:53:03.795Z,3.77
2019-02-27T17:55:32.992Z,4.33
2019-02-27T17:58:02.193Z,3.50
2019-02-27T18:00:42.376Z,2.83
2019-02-27T18:03:11.588Z,2.70
2019-02-27T18:05:40.825Z,2.97
2019-02-27T18:08:10.033Z,2.70
2019-02-27T18:10:39.219Z,2.33
2019-02-27T18:13:08.458Z,2.60
2019-02-27T18:15:37.722Z,2.47
2019-02-27T18:18:09.113Z,3.20
2019-02-27T18:20:37.844Z,3.90
2019-02-27T18:23:07.051Z,4.13
2019-02-27T18:25:41.034Z,8.40
2019-02-27T18:28:07.160Z,8.93
2019-02-27T18:30:36.343Z,7.70
2019-02-27T18:33:05.557Z,6.83
2019-02-27T18:35:34.743Z,7.73
2019-02-27T18:38:03.962Z,7.07
2019-02-27T18:40:33.151Z,7.20
2019-02-27T18:43:02.357Z,5.93
2019-02-27T18:45:31.579Z,5.30
2019-02-27T18:48:00.777Z,5.67
2019-02-27T18:50:29.966Z,5.60
2019-02-27T18:52:59.188Z,5.87
2019-02-27T18:55:30.657Z,6.37
2019-02-27T18:57:59.278Z,7.17
2019-02-27T19:00:29.402Z,7.37
2019-02-27T19:03:10.618Z,5.70
2019-02-27T19:05:42.024Z,3.70
2019-02-27T19:08:10.720Z,3.13
2019-02-27T19:10:42.451Z,2.57
2019-02-27T19:13:10.962Z,3.00
2019-02-27T19:15:45.419Z,2.97
2019-02-27T19:18:11.120Z,2.93
2019-02-27T19:20:45.628Z,3.60
2019-02-27T19:23:17.731Z,3.20
2019-02-27T19:25:45.709Z,4.10
2019-02-27T19:28:14.970Z,4.90
2019-02-27T19:30:44.157Z,9.37
2019-02-27T19:33:13.360Z,8.57
2019-02-27T19:35:42.558Z,6.90
2019-02-27T19:38:12.910Z,5.73
2019-02-27T19:40:42.639Z,5.87
2019-02-27T19:43:11.857Z,5.70
2019-02-27T19:45:42.297Z,5.53
2019-02-27T19:48:11.860Z,5.20
2019-02-27T19:50:45.248Z,4.97
2019-02-27T19:53:11.969Z,4.73
2019-02-27T19:55:41.248Z,4.17
2019-02-27T19:58:10.455Z,4.63
2019-02-27T20:00:48.029Z,3.97
2019-02-27T20:03:10.592Z,4.37
2019-02-27T20:05:39.780Z,4.37
2019-02-27T20:08:10.914Z,3.90
2019-02-27T20:10:40.255Z,4.10
2019-02-27T20:13:09.458Z,4.37
2019-02-27T20:15:38.646Z,4.57
2019-02-27T20:18:08.864Z,5.87
2019-02-27T20:20:40.946Z,12.87
2019-02-27T20:23:09.298Z,19.47
2019-02-27T20:25:43.168Z,9.37
2019-02-27T20:28:09.398Z,7.17
2019-02-27T20:30:38.598Z,7.37
2019-02-27T20:33:07.833Z,6.63
2019-02-27T20:35:37.030Z,6.30
2019-02-27T20:38:06.248Z,6.03
2019-02-27T20:40:35.436Z,5.70
2019-02-27T20:43:04.644Z,5.00
2019-02-27T20:45:33.824Z,5.10
2019-02-27T20:48:03.121Z,4.10
2019-02-27T20:50:55.176Z,4.57
2019-02-27T20:53:24.619Z,4.33
2019-02-27T20:55:53.807Z,4.33
2019-02-27T20:58:23.059Z,4.10
2019-02-27T21:00:52.523Z,3.90
2019-02-27T21:03:26.683Z,3.90
2019-02-27T21:05:52.803Z,4.30
2019-02-27T21:08:22.082Z,4.17
2019-02-27T21:10:54.873Z,4.57
2019-02-27T21:13:22.158Z,6.20
2019-02-27T21:15:51.350Z,6.23
2019-02-27T21:18:20.588Z,8.33
2019-02-27T21:20:50.912Z,6.77
2019-02-27T21:23:20.179Z,5.67
2019-02-27T21:25:49.926Z,5.00
2019-02-27T21:28:21.316Z,5.30
2019-02-27T21:30:52.445Z,4.77
2019-02-27T21:33:21.090Z,5.57
2019-02-27T21:35:50.282Z,5.90
2019-02-27T21:38:19.486Z,6.07
2019-02-27T21:40:48.677Z,5.93
2019-02-27T21:43:17.894Z,6.00
2019-02-27T21:45:47.093Z,6.03
2019-02-27T21:48:16.341Z,6.70
2019-02-27T21:50:45.507Z,6.70
2019-02-27T21:53:14.729Z,6.53
2019-02-27T21:55:44.685Z,6.23
2019-02-27T21:58:20.382Z,5.90
2019-02-27T22:00:48.269Z,6.23
2019-02-27T22:03:16.427Z,6.20
2019-02-27T22:05:46.987Z,5.93
2019-02-27T22:08:16.204Z,7.60
2019-02-27T22:10:45.406Z,7.43
2019-02-27T22:13:14.631Z,7.13
2019-02-27T22:15:43.825Z,6.63
2019-02-27T22:18:13.026Z,6.63
2019-02-27T22:20:42.223Z,7.47
2019-02-27T22:23:12.618Z,6.53
2019-02-27T22:25:42.100Z,7.07
2019-02-27T22:28:11.310Z,7.23
2019-02-27T22:30:40.493Z,7.47
2019-02-27T22:33:09.688Z,7.10
2019-02-27T22:35:38.937Z,8.03
2019-02-27T22:38:08.121Z,7.97
2019-02-27T22:40:38.285Z,8.13
2019-02-27T22:43:08.305Z,8.73
2019-02-27T22:45:40.504Z,8.40
2019-02-27T22:48:08.401Z,9.03
2019-02-27T22:50:38.371Z,8.40
2019-02-27T22:53:08.513Z,9.60
2019-02-27T22:55:37.730Z,7.80
2019-02-27T22:58:06.936Z,8.23
2019-02-27T23:00:53.063Z,8.63
2019-02-27T23:03:31.752Z,8.33
2019-02-27T23:06:00.948Z,8.23
2019-02-27T23:08:30.135Z,9.27
2019-02-27T23:11:02.910Z,8.20
2019-02-27T23:13:30.364Z,7.90
2019-02-27T23:15:59.585Z,7.77
2019-02-27T23:18:28.770Z,7.57
2019-02-27T23:20:58.004Z,7.40
2019-02-27T23:23:27.196Z,7.57
2019-02-27T23:25:56.408Z,6.97
2019-02-27T23:28:25.602Z,7.47
2019-02-27T23:30:54.806Z,7.70
2019-02-27T23:33:24.732Z,7.23
2019-02-27T23:35:54.082Z,7.07
2019-02-27T23:38:23.398Z,7.83
2019-02-27T23:40:52.603Z,7.37
2019-02-27T23:43:21.852Z,7.07
2019-02-27T23:45:51.063Z,6.60
2019-02-27T23:48:20.260Z,6.80
2019-02-27T23:50:49.460Z,6.77
2019-02-27T23:53:18.658Z,7.13
2019-02-27T23:55:47.865Z,6.70
2019-02-27T23:58:17.046Z,6.70
